createdAt,value
2018-06-16T00:00:25.192Z,29.8
2018-06-16T00:01:27.905Z,29.3
2018-06-16T00:02:30.637Z,29.8
2018-06-16T00:03:33.353Z,29.3
2018-06-16T00:04:36.070Z,29.3
2018-06-16T00:05:38.539Z,29.3
2018-06-16T00:06:41.294Z,29.3
2018-06-16T00:07:44.029Z,29.8
2018-06-16T00:08:46.747Z,29.3
2018-06-16T00:09:49.467Z,29.3
2018-06-16T00:10:51.927Z,29.3
2018-06-16T00:11:54.650Z,29.3
2018-06-16T00:12:57.395Z,29.3
2018-06-16T00:14:00.111Z,29.3
2018-06-16T00:15:02.828Z,28.8
2018-06-16T00:16:05.544Z,29.3
2018-06-16T00:17:08.270Z,29.3
2018-06-16T00:18:10.997Z,29.3
2018-06-16T00:19:13.708Z,28.8
2018-06-16T00:20:16.428Z,29.3
2018-06-16T00:21:19.141Z,28.8
2018-06-16T00:22:21.889Z,28.8
2018-06-16T00:23:24.623Z,28.8
2018-06-16T00:24:27.351Z,28.8
2018-06-16T00:25:30.063Z,28.8
2018-06-16T00:26:32.791Z,29.3
2018-06-16T00:27:35.525Z,28.8
2018-06-16T00:28:38.233Z,28.8
2018-06-16T00:29:40.962Z,28.8
2018-06-16T00:30:43.681Z,28.8
2018-06-16T00:31:46.433Z,29.3
2018-06-16T00:32:48.874Z,28.8
2018-06-16T00:33:51.320Z,28.8
2018-06-16T00:34:54.285Z,28.8
2018-06-16T00:35:56.993Z,28.8
2018-06-16T00:36:59.723Z,28.8
2018-06-16T00:38:02.120Z,28.8
2018-06-16T00:39:04.840Z,29.3
2018-06-16T00:40:07.555Z,28.3
2018-06-16T00:41:10.372Z,28.3
2018-06-16T00:42:15.189Z,28.3
2018-06-16T00:43:17.905Z,28.8
2018-06-16T00:44:20.619Z,28.8
2018-06-16T00:45:23.333Z,28.8
2018-06-16T00:46:26.267Z,28.8
2018-06-16T00:47:28.992Z,28.8
2018-06-16T00:48:31.718Z,28.8
2018-06-16T00:49:34.463Z,28.3
2018-06-16T00:50:37.183Z,28.3
2018-06-16T00:51:40.104Z,28.8
2018-06-16T00:52:42.567Z,28.3
2018-06-16T00:53:45.282Z,28.8
2018-06-16T00:54:47.997Z,28.3
2018-06-16T00:55:50.713Z,28.3
2018-06-16T00:56:53.164Z,28.3
2018-06-16T00:57:55.881Z,28.3
2018-06-16T00:58:58.330Z,28.8
2018-06-16T01:00:01.059Z,28.3
2018-06-16T01:01:03.780Z,28.3
2018-06-16T01:02:06.489Z,28.3
2018-06-16T01:03:09.253Z,28.3
2018-06-16T01:04:12.022Z,28.3
2018-06-16T01:05:14.726Z,27.9
2018-06-16T01:06:17.442Z,28.3
2018-06-16T01:07:20.173Z,28.3
2018-06-16T01:08:22.896Z,28.8
2018-06-16T01:09:25.612Z,28.3
2018-06-16T01:10:28.319Z,28.3
2018-06-16T01:11:31.030Z,28.3
2018-06-16T01:12:33.478Z,28.3
2018-06-16T01:13:35.944Z,28.3
2018-06-16T01:14:38.671Z,28.3
2018-06-16T01:15:41.390Z,28.8
2018-06-16T01:16:44.111Z,28.3
2018-06-16T01:17:46.569Z,28.3
2018-06-16T01:18:49.288Z,28.3
2018-06-16T01:19:52.008Z,28.3
2018-06-16T01:20:54.732Z,28.8
2018-06-16T01:21:57.687Z,28.8
2018-06-16T01:23:00.408Z,28.3
2018-06-16T01:24:03.130Z,28.8
2018-06-16T01:25:05.855Z,28.8
2018-06-16T01:26:08.576Z,28.8
2018-06-16T01:27:11.284Z,28.3
2018-06-16T01:28:13.739Z,28.3
2018-06-16T01:29:16.463Z,28.8
2018-06-16T01:30:19.188Z,28.8
2018-06-16T01:31:21.908Z,28.8
2018-06-16T01:32:24.630Z,28.8
2018-06-16T01:33:27.358Z,28.8
2018-06-16T01:34:30.069Z,29.3
2018-06-16T01:35:32.790Z,29.8
2018-06-16T01:36:35.510Z,29.3
2018-06-16T01:37:38.222Z,29.8
2018-06-16T01:38:40.950Z,29.3
2018-06-16T01:39:43.678Z,29.3
2018-06-16T01:40:46.401Z,29.8
2018-06-16T01:41:49.265Z,29.8
2018-06-16T01:42:51.977Z,30.3
2018-06-16T01:43:54.730Z,30.8
2018-06-16T01:44:57.175Z,30.8
2018-06-16T01:45:59.896Z,30.8
2018-06-16T01:47:02.625Z,30.8
2018-06-16T01:48:05.338Z,31.3
2018-06-16T01:49:08.047Z,31.3
2018-06-16T01:50:10.773Z,31.3
2018-06-16T01:51:13.498Z,31.3
2018-06-16T01:52:16.211Z,32.3
2018-06-16T01:53:18.958Z,31.8
2018-06-16T01:54:21.676Z,31.8
2018-06-16T01:55:24.389Z,31.8
2018-06-16T01:56:27.116Z,31.8
2018-06-16T01:57:29.849Z,31.8
2018-06-16T01:58:32.559Z,31.8
2018-06-16T01:59:35.264Z,32.3
2018-06-16T02:00:37.989Z,32.3
2018-06-16T02:01:40.702Z,32.3
2018-06-16T02:02:43.438Z,31.8
2018-06-16T02:03:45.909Z,31.8
2018-06-16T02:04:48.638Z,32.3
2018-06-16T02:05:51.099Z,32.3
2018-06-16T02:06:53.820Z,32.3
2018-06-16T02:07:56.537Z,32.7
2018-06-16T02:08:59.258Z,32.7
2018-06-16T02:10:01.979Z,32.7
2018-06-16T02:11:04.694Z,32.3
2018-06-16T02:12:07.409Z,32.7
2018-06-16T02:13:10.131Z,32.3
2018-06-16T02:14:12.844Z,32.7
2018-06-16T02:15:15.325Z,32.3
2018-06-16T02:16:18.038Z,32.7
2018-06-16T02:17:20.748Z,32.7
